Flight Track Log - Related Links

Times and Time Zones

All times are in EDT time to prevent confusion due to time zone crossing. See the XOJ578 flight status page for this flight to view local times or setup timezone preferences in your user account.

Time Position Orientation Groundspeed Altitude Reporting Facility
EDT Latitude Longitude Course Direction KTS MPH feet Rate Location/Type
Fri 08:49:33 PM 34.1667 -118.4833 109° East 194 223 2,500  Level Southern California TRACON
Fri 08:50:20 PM 34.1508 -118.4289 109° East 230 265 6,000 3,908 Climbing Los Angeles Center
Fri 08:51:22 PM 34.2133 -118.4225 North 262 302 9,600 3,097 Climbing Los Angeles Center
Fri 08:52:24 PM 34.2883 -118.4253 358° North 304 350 12,400 3,048 Climbing Los Angeles Center
Fri 08:53:26 PM 34.3719 -118.3794 24° Northeast 328 377 15,900 2,952 Climbing Los Angeles Center
Fri 08:54:28 PM 34.4108 -118.3006 59° Northeast 347 399 18,500 3,290 Climbing Los Angeles Center
Fri 08:55:30 PM 34.4617 -118.1447 68° East 358 412 22,700 3,194 Climbing Los Angeles Center
Fri 08:56:32 PM 34.4967 -118.0386 68° East 375 432 25,100 1,984 Climbing Los Angeles Center
Fri 08:57:34 PM 34.5375 -117.9108 69° East 406 467 26,800 919 Climbing Los Angeles Center
Fri 08:58:36 PM 34.5931 -117.7431 68° East 446 513 27,000 97 Climbing Los Angeles Center
Fri 08:59:38 PM 34.6381 -117.6006 69° East 455 524 27,000  Level Los Angeles Center
Fri 09:00:41 PM 34.6833 -117.4611 68° East 450 518 27,000  Level Los Angeles Center
Fri 09:01:42 PM 34.7186 -117.3481 69° East 451 519 27,000  Level Los Angeles Center
Fri 09:02:45 PM 34.7731 -117.1764 69° East 457 526 27,000  Level Los Angeles Center
Fri 09:03:47 PM 34.8283 -117.0017 69° East 461 531 27,000  Level Los Angeles Center
Fri 09:04:49 PM 34.8819 -116.8647 64° Northeast 450 518 27,000  Level Los Angeles Center
Fri 09:05:51 PM 34.9461 -116.7306 60° Northeast 457 526 27,000  Level Los Angeles Center
Fri 09:06:53 PM 35.0103 -116.5958 60° Northeast 462 532 27,000 -871 Level Los Angeles Center
Fri 09:07:55 PM 35.0725 -116.4642 60° Northeast 454 522 25,200 -1,839 Descending Los Angeles Center
Fri 09:08:57 PM 35.1597 -116.3281 52° Northeast 430 495 23,200 -1,452 Descending Los Angeles Center
Fri 09:09:59 PM 35.2414 -116.2264 45° Northeast 422 486 22,200 -968 Descending Los Angeles Center
Fri 09:11:01 PM 35.3197 -116.1281 46° Northeast 412 474 21,200 -960 Descending Los Angeles Center
Fri 09:12:04 PM 35.3978 -116.0281 46° Northeast 408 470 20,200 -1,296 Descending Los Angeles Center
Fri 09:13:06 PM 35.4753 -115.9300 46° Northeast 403 464 18,500 -2,000 Descending Los Angeles Center
Fri 09:13:58 PM 35.5553 -115.8378 43° Northeast 386 444 16,400 -2,136 Descending Los Angeles Center
Fri 09:15:04 PM 35.6294 -115.7400 47° Northeast 365 420 14,300 -1,559 Descending Los Angeles Center
Fri 09:16:05 PM 35.6956 -115.6556 46° Northeast 341 392 13,100 -600 Descending Los Angeles Center
Fri 09:17:14 PM 35.7742 -115.5761 39° Northeast 327 376 13,000 -71 Descending Los Angeles Center
Fri 09:17:30 PM 35.8014 -115.5764 360° North 325 374 13,000  Level Los Angeles Center
Fri 09:18:12 PM 35.8578 -115.5475 23° Northeast 335 386 13,000  Level Los Angeles Center
Fri 09:19:18 PM 35.9081 -115.4403 60° Northeast 325 374 13,000 -787 Level Los Angeles Center
Fri 09:20:14 PM 35.9483 -115.3564 59° Northeast 322 371 11,400 -1,548 Descending Los Angeles Center
Fri 09:21:22 PM 35.9953 -115.2536 61° Northeast 319 367 9,800 -1,345 Descending Los Angeles Center
Fri 09:22:10 PM 36.0167 -115.1825 70° East 282 325 8,800 -939 Descending Los Angeles Center
Fri 09:23:17 PM 36.0142 -115.0822 92° East 244 281 8,000 -756 Descending Los Angeles Center
Fri 09:24:17 PM 36.0639 -115.0525 26° Northeast 212 244 7,200 -1,181 Descending Los Angeles Center
Fri 09:25:24 PM 36.1206 -115.0444 North 191 220 5,500 -1,759 Descending Los Angeles Center
Fri 09:26:13 PM 36.1333 -115.0933 288° West 179 206 3,800 -1,676 Descending Los Angeles Center
Fri 09:26:32 PM 36.1367 -115.1042 291° West 187 215 3,600 -987 Descending Los Angeles Center
Fri 09:27:32 PM 36.1122 -115.1456 234° Southwest 144 166 2,500 -1,100 Descending Los Angeles Center
Fri 09:29:00 PM 36.0801 -115.1523 270° West  Level Estimated
Fri 09:36:00 PM 36.0801 -115.1523 270° West  Level Estimated

Login

Don't have an account? Register now (free) for customized features, flight alerts, and more!